Time,TemperatureF,DewpointF,PressureIn,WindDirection,WindDirectionDegrees,WindSpeedMPH,WindSpeedGustMPH,Humidity,HourlyPrecipIn,Conditions,Clouds,dailyrainin,SolarRadiationWatts/m^2,SoftwareType,DateUTC
2013-01-31 00:42:00,41.0,34.0,-100.00,NW,308,7.0,22.0,77,0.00,,,2.13,0.000000,,2013-01-31 05:42:00,
2013-01-31 00:52:00,41.0,34.0,-100.00,NW,308,7.0,22.0,77,0.00,,,2.13,0.000000,,2013-01-31 05:52:00,
2013-01-31 01:01:00,41.0,34.0,-100.00,NW,308,7.0,22.0,77,0.00,,,2.13,0.000000,,2013-01-31 06:01:00,
2013-01-31 08:02:00,32.0,23.0,-100.00,NW,316,4.0,11.0,68,0.00,,,2.10,4.000000,,2013-01-31 13:02:00,
2013-01-31 09:02:00,34.0,24.0,-100.00,NW,310,6.0,17.0,67,0.00,,,2.09,37.000000,,2013-01-31 14:02:00,
2013-01-31 09:32:00,34.0,24.0,-100.00,NW,310,6.0,17.0,67,0.00,,,2.09,37.000000,,2013-01-31 14:32:00,
2013-01-31 09:42:00,34.0,24.0,-100.00,NW,310,6.0,17.0,67,0.00,,,2.09,37.000000,,2013-01-31 14:42:00,
2013-01-31 09:52:00,34.0,24.0,-100.00,NW,310,6.0,17.0,67,0.00,,,2.09,37.000000,,2013-01-31 14:52:00,
2013-01-31 10:02:00,35.0,23.0,-100.00,NW,320,8.0,16.0,62,0.00,,,2.08,51.000000,,2013-01-31 15:02:00,
2013-01-31 10:32:00,35.0,23.0,-100.00,NW,320,8.0,16.0,62,0.00,,,2.08,51.000000,,2013-01-31 15:32:00,
2013-01-31 10:42:00,35.0,23.0,-100.00,NW,320,8.0,16.0,62,0.00,,,2.08,51.000000,,2013-01-31 15:42:00,
2013-01-31 10:52:00,35.0,23.0,-100.00,NW,320,8.0,16.0,62,0.00,,,2.08,51.000000,,2013-01-31 15:52:00,
2013-01-31 11:02:00,39.0,24.0,-100.00,WNW,292,4.0,12.0,54,0.00,,,2.06,233.000000,,2013-01-31 16:02:00,
2013-01-31 11:33:00,39.0,24.0,-100.00,WNW,292,4.0,12.0,54,0.00,,,2.06,233.000000,,2013-01-31 16:33:00,
2013-01-31 11:42:00,39.0,24.0,-100.00,WNW,292,4.0,12.0,54,0.00,,,2.06,233.000000,,2013-01-31 16:42:00,
2013-01-31 11:52:00,39.0,24.0,-100.00,WNW,292,4.0,12.0,54,0.00,,,2.06,233.000000,,2013-01-31 16:52:00,
2013-01-31 12:02:00,42.0,22.0,-100.00,NW,306,7.0,17.0,44,0.00,,,2.03,424.000000,,2013-01-31 17:02:00,
2013-01-31 12:32:00,42.0,22.0,-100.00,NW,306,7.0,17.0,44,0.00,,,2.03,424.000000,,2013-01-31 17:32:00,
2013-01-31 12:44:00,42.0,22.0,-100.00,NW,306,7.0,17.0,44,0.00,,,2.03,424.000000,,2013-01-31 17:44:00,
2013-01-31 12:53:00,42.0,22.0,-100.00,NW,306,7.0,17.0,44,0.00,,,2.03,424.000000,,2013-01-31 17:53:00,
2013-01-31 13:02:00,44.0,23.0,-100.00,NW,315,6.0,17.0,43,0.00,,,2.02,673.000000,,2013-01-31 18:02:00,
2013-01-31 13:32:00,44.0,23.0,-100.00,NW,315,6.0,17.0,43,0.00,,,2.02,673.000000,,2013-01-31 18:32:00,
2013-01-31 13:43:00,44.0,23.0,-100.00,NW,315,6.0,17.0,43,0.00,,,2.02,673.000000,,2013-01-31 18:43:00,
2013-01-31 13:52:00,44.0,23.0,-100.00,NW,315,6.0,17.0,43,0.00,,,2.02,673.000000,,2013-01-31 18:52:00,
2013-01-31 14:02:00,46.0,24.0,-100.00,NW,317,7.0,17.0,41,0.00,,,1.92,678.000000,,2013-01-31 19:02:00,
2013-01-31 14:33:00,46.0,24.0,-100.00,NW,317,7.0,17.0,41,0.00,,,1.92,678.000000,,2013-01-31 19:33:00,
2013-01-31 14:43:00,46.0,24.0,-100.00,NW,317,7.0,17.0,41,0.00,,,1.92,678.000000,,2013-01-31 19:43:00,
2013-01-31 14:52:00,46.0,24.0,-100.00,NW,317,7.0,17.0,41,0.00,,,1.92,678.000000,,2013-01-31 19:52:00,
2013-01-31 15:02:00,46.0,19.0,-100.00,NW,315,9.0,21.0,34,0.00,,,0.67,567.000000,,2013-01-31 20:02:00,
2013-01-31 15:22:00,46.0,19.0,-100.00,NW,315,9.0,21.0,34,0.00,,,0.67,567.000000,,2013-01-31 20:22:00,
2013-01-31 15:32:00,46.0,19.0,-100.00,NW,315,9.0,21.0,34,0.00,,,0.67,567.000000,,2013-01-31 20:32:00,
2013-01-31 15:42:00,46.0,19.0,-100.00,NW,315,9.0,21.0,34,0.00,,,0.67,567.000000,,2013-01-31 20:42:00,
2013-01-31 15:52:00,46.0,19.0,-100.00,NW,315,9.0,21.0,34,0.00,,,0.67,567.000000,,2013-01-31 20:52:00,
2013-01-31 16:02:00,47.0,19.0,-100.00,NW,309,7.0,16.0,33,0.00,,,0.48,468.000000,,2013-01-31 21:02:00,
2013-01-31 16:32:00,47.0,19.0,-100.00,NW,309,7.0,16.0,33,0.00,,,0.48,468.000000,,2013-01-31 21:32:00,
2013-01-31 16:42:00,47.0,19.0,-100.00,NW,309,7.0,16.0,33,0.00,,,0.48,468.000000,,2013-01-31 21:42:00,
2013-01-31 16:52:00,47.0,19.0,-100.00,NW,309,7.0,16.0,33,0.00,,,0.48,468.000000,,2013-01-31 21:52:00,
2013-01-31 17:02:00,44.0,19.0,-100.00,NW,325,7.0,16.0,36,0.00,,,0.29,134.000000,,2013-01-31 22:02:00,
2013-01-31 17:33:00,44.0,19.0,-100.00,NW,325,7.0,16.0,36,0.00,,,0.29,134.000000,,2013-01-31 22:33:00,
2013-01-31 17:42:00,44.0,19.0,-100.00,NW,325,7.0,16.0,36,0.00,,,0.29,134.000000,,2013-01-31 22:42:00,
2013-01-31 17:52:00,44.0,19.0,-100.00,NW,325,7.0,16.0,36,0.00,,,0.29,134.000000,,2013-01-31 22:52:00,
2013-01-31 18:02:00,42.0,21.0,-100.00,NW,309,4.0,10.0,42,0.00,,,0.19,14.000000,,2013-01-31 23:02:00,
2013-01-31 18:32:00,42.0,21.0,-100.00,NW,309,4.0,10.0,42,0.00,,,0.19,14.000000,,2013-01-31 23:32:00,
2013-01-31 18:42:00,42.0,21.0,-100.00,NW,309,4.0,10.0,42,0.00,,,0.19,14.000000,,2013-01-31 23:42:00,
2013-01-31 18:52:00,42.0,21.0,-100.00,NW,309,4.0,10.0,42,0.00,,,0.19,14.000000,,2013-01-31 23:52:00,
2013-01-31 19:22:00,40.0,21.0,-100.00,West,261,3.0,10.0,47,0.00,,,0.10,1.000000,,2013-02-01 00:22:00,
2013-01-31 19:32:00,40.0,21.0,-100.00,West,261,3.0,10.0,47,0.00,,,0.10,1.000000,,2013-02-01 00:32:00,
2013-01-31 19:42:00,40.0,21.0,-100.00,West,261,3.0,10.0,47,0.00,,,0.10,1.000000,,2013-02-01 00:42:00,
2013-01-31 19:52:00,40.0,21.0,-100.00,West,261,3.0,10.0,47,0.00,,,0.10,1.000000,,2013-02-01 00:52:00,
2013-01-31 20:01:00,40.0,21.0,-100.00,West,261,3.0,10.0,47,0.00,,,0.10,1.000000,,2013-02-01 01:01:00,
2013-01-31 20:02:00,39.0,23.0,-100.00,West,260,3.0,9.0,53,0.00,,,0.08,0.000000,,2013-02-01 01:02:00,
2013-01-31 20:32:00,39.0,23.0,-100.00,West,260,3.0,9.0,53,0.00,,,0.08,0.000000,,2013-02-01 01:32:00,
2013-01-31 20:42:00,39.0,23.0,-100.00,West,260,3.0,9.0,53,0.00,,,0.08,0.000000,,2013-02-01 01:42:00,
2013-01-31 20:52:00,39.0,23.0,-100.00,West,260,3.0,9.0,53,0.00,,,0.08,0.000000,,2013-02-01 01:52:00,
2013-01-31 21:02:00,38.0,22.0,-100.00,West,276,4.0,11.0,53,0.00,,,0.04,0.000000,,2013-02-01 02:02:00,
2013-01-31 21:32:00,38.0,22.0,-100.00,West,276,4.0,11.0,53,0.00,,,0.04,0.000000,,2013-02-01 02:32:00,
2013-01-31 21:42:00,38.0,22.0,-100.00,West,276,4.0,11.0,53,0.00,,,0.04,0.000000,,2013-02-01 02:42:00,
2013-01-31 21:52:00,38.0,22.0,-100.00,West,276,4.0,11.0,53,0.00,,,0.04,0.000000,,2013-02-01 02:52:00,
2013-01-31 22:02:00,37.0,23.0,-100.00,WSW,254,2.0,10.0,56,0.00,,,0.02,0.000000,,2013-02-01 03:02:00,
2013-01-31 22:33:00,37.0,23.0,-100.00,WSW,254,2.0,10.0,56,0.00,,,0.02,0.000000,,2013-02-01 03:33:00,
2013-01-31 22:42:00,37.0,23.0,-100.00,WSW,254,2.0,10.0,56,0.00,,,0.02,0.000000,,2013-02-01 03:42:00,
2013-01-31 22:52:00,37.0,23.0,-100.00,WSW,254,2.0,10.0,56,0.00,,,0.02,0.000000,,2013-02-01 03:52:00,
2013-01-31 23:02:00,36.0,24.0,-100.00,NW,310,2.0,5.0,61,0.00,,,0.00,0.000000,,2013-02-01 04:02:00,
2013-01-31 23:32:00,36.0,24.0,-100.00,NW,310,2.0,5.0,61,0.00,,,0.00,0.000000,,2013-02-01 04:32:00,
2013-01-31 23:42:00,36.0,24.0,-100.00,NW,310,2.0,5.0,61,0.00,,,0.00,0.000000,,2013-02-01 04:42:00,
2013-01-31 23:52:00,36.0,24.0,-100.00,NW,310,2.0,5.0,61,0.00,,,0.00,0.000000,,2013-02-01 04:52:00,